Mud Butte, SD (57758)

1:25 PM MDT on August 22, 2014 (GMT -0600)
Black Hills-Ice | Change Station
CLOSE
Current Station
Airport
Location: Spearfish,
Elevation: 3898 ft
Nearby Weather Stations

Elev 3898 ft 44.48 °N, 103.78 °W | Updated 30 minutes ago

Overcast
Overcast
64 °F
Feels Like 64 °F
N
10
Wind Variable Wind from ENE

Today
High -- | Low -- °F
--% Chance of Precip.
Yesterday
High -- | Low -- °F
Precip. -- in
6:01 AM 7:46 PM
Waning Crescent, 7% visible
Pressure 30.10 in
Visibility 10.0 miles
Clouds Overcast 1400 ft
Dew Point 61 °F
Humidity 88%
Rainfall 0.00 in
Snow Depth Not available.
UV 3 out of 12
Pollen 9.60 out of 12
Air Quality Not available.
Flu Activity Not available.
METAR KSPF 221855Z AUTO 06009KT 10SM VCTS OVC014 18/16 A3010 RMK AO2 LTG DSNT SE AND S

More Conditions Fewer Conditions

Pressure 30.10 in
Visibility 10.0 miles
Clouds Overcast 1400 ft
Dew Point 61 °F
Humidity 88%
Rainfall 0.00 in
Snow Depth Not available.
UV 3 out of 12
Pollen 9.60 out of 12
Air Quality Not available.
Flu Activity Not available.
METAR KSPF 221855Z AUTO 06009KT 10SM VCTS OVC014 18/16 A3010 RMK AO2 LTG DSNT SE AND S

More Conditions Fewer Conditions

10-Day Weather Forecast

Almanac

Astronomy

Aug. 22, 2014 Rise Set
Actual Time 6:01 AM MDT 7:46 PM MDT
Civil Twilight 5:30 AM MDT 8:17 PM MDT
Nautical Twilight 4:51 AM MDT 8:55 PM MDT
Astronomical Twilight 4:10 AM MDT 9:36 PM MDT
Moon 3:22 AM MDT 5:58 PM MDT
Length of Visible Light 14h 47m
Length of Day
13h 44m
Tomorrow will be 2m 55s shorter.
Waning Crescent, 7% of the Moon is Illuminated
Today
Waning Crescent
Aug 25
New
Sep 2
First Quarter
Sep 8
Full
Sep 15
Last Quarter

Today's Extremes

State Highs State Lows

Community

WunderPhotos

Upload Photos

1,746,224 photos uploaded!

Nearby

Snow Depth

Station Depth Elevation
Blind Park 0 in 6890 ft

Earthquake Activity

City Distance Mag. Time & Date
No recent earthquake activity has been reported nearby.
Minimum magnitude displayed is 2.5.

Coastal Water Temperatures

Place Temperature
No Stations Reporting

Nearby Weather Stations